ADDS METAR Data INFO
IDs: Format: Raw Decoded Include TAF

Data at: 2023 UTC 22 Apr 2018

METAR for:KCVG (Cincinnati Intl, KY, US)
Text:KCVG 221952Z 07013KT 10SM OVC180 18/M02 A3021 RMK AO2 SLP225 BINOVC T01781017
Temperature: 17.8°C ( 64°F)
Dewpoint: -1.7°C ( 29°F) [RH = 26%]
Pressure (altimeter):30.21 inches Hg (1023.1 mb) [Sea level pressure: 1022.5 mb]
Winds:from the ENE (70 degrees) at 15 MPH (13 knots; 6.7 m/s)
Visibility:10 or more sm (16+ km)
Ceiling:18000 feet AGL
Clouds: overcast cloud deck at 18000 feet AGL